sensor_id;sensor_type;location;lat;lon;timestamp;pressure;altitude;pressure_sealevel;temperature;humidity
71805;BME280;59654;52.216;5.616;2023-02-28T00:00:08;102991.88;;;-0.16;86.19
71805;BME280;59654;52.216;5.616;2023-02-28T00:00:40;102994.50;;;-0.16;86.23
71805;BME280;59654;52.216;5.616;2023-02-28T00:01:12;102987.47;;;-0.17;86.42
71805;BME280;59654;52.216;5.616;2023-02-28T00:01:44;102992.72;;;-0.17;86.37
71805;BME280;59654;52.216;5.616;2023-02-28T00:02:15;102998.84;;;-0.16;86.61
71805;BME280;59654;52.216;5.616;2023-02-28T00:02:48;102992.72;;;-0.17;86.61
71805;BME280;59654;52.216;5.616;2023-02-28T00:03:19;102988.38;;;-0.16;86.56
71805;BME280;59654;52.216;5.616;2023-02-28T00:03:50;102999.75;;;-0.16;86.78
71805;BME280;59654;52.216;5.616;2023-02-28T00:04:21;102995.41;;;-0.15;86.69
71805;BME280;59654;52.216;5.616;2023-02-28T00:04:51;102999.81;;;-0.14;86.88
71805;BME280;59654;52.216;5.616;2023-02-28T00:05:32;102995.41;;;-0.15;86.86
71805;BME280;59654;52.216;5.616;2023-02-28T00:06:04;102991.88;;;-0.16;87.06
71805;BME280;59654;52.216;5.616;2023-02-28T00:06:36;102992.78;;;-0.15;86.86
71805;BME280;59654;52.216;5.616;2023-02-28T00:07:06;102992.78;;;-0.15;86.99
71805;BME280;59654;52.216;5.616;2023-02-28T00:07:38;102998.03;;;-0.15;86.82
71805;BME280;59654;52.216;5.616;2023-02-28T00:08:09;102993.69;;;-0.15;86.64
71805;BME280;59654;52.216;5.616;2023-02-28T00:08:40;102996.31;;;-0.15;86.70
71805;BME280;59654;52.216;5.616;2023-02-28T00:09:11;102998.91;;;-0.15;87.13
71805;BME280;59654;52.216;5.616;2023-02-28T00:09:42;102993.63;;;-0.16;86.48
71805;BME280;59654;52.216;5.616;2023-02-28T00:10:17;102995.28;;;-0.19;87.01
71805;BME280;59654;52.216;5.616;2023-02-28T00:10:53;102993.47;;;-0.20;87.01
71805;BME280;59654;52.216;5.616;2023-02-28T00:11:24;102989.97;;;-0.20;86.62
71805;BME280;59654;52.216;5.616;2023-02-28T00:11:54;102994.31;;;-0.21;86.83
71805;BME280;59654;52.216;5.616;2023-02-28T00:12:25;102988.19;;;-0.21;86.88
71805;BME280;59654;52.216;5.616;2023-02-28T00:13:01;102993.34;;;-0.23;86.75
71805;BME280;59654;52.216;5.616;2023-02-28T00:13:37;102990.69;;;-0.24;86.90
71805;BME280;59654;52.216;5.616;2023-02-28T00:14:12;102994.09;;;-0.27;86.83
71805;BME280;59654;52.216;5.616;2023-02-28T00:14:43;102997.47;;;-0.29;86.90
71805;BME280;59654;52.216;5.616;2023-02-28T00:15:14;103001.75;;;-0.31;87.19
71805;BME280;59654;52.216;5.616;2023-02-28T00:15:45;102996.44;;;-0.33;87.34
71805;BME280;59654;52.216;5.616;2023-02-28T00:16:20;102999.75;;;-0.37;86.93
71805;BME280;59654;52.216;5.616;2023-02-28T00:16:52;103002.38;;;-0.37;87.20
71805;BME280;59654;52.216;5.616;2023-02-28T00:17:22;103003.22;;;-0.38;87.13
71805;BME280;59654;52.216;5.616;2023-02-28T00:17:54;102997.91;;;-0.39;88.00
71805;BME280;59654;52.216;5.616;2023-02-28T00:18:25;102999.59;;;-0.41;88.32
71805;BME280;59654;52.216;5.616;2023-02-28T00:18:55;102999.63;;;-0.40;88.56
71805;BME280;59654;52.216;5.616;2023-02-28T00:19:26;102996.31;;;-0.36;88.94
71805;BME280;59654;52.216;5.616;2023-02-28T00:19:57;102997.22;;;-0.35;88.87
71805;BME280;59654;52.216;5.616;2023-02-28T00:20:34;102995.56;;;-0.33;88.91
71805;BME280;59654;52.216;5.616;2023-02-28T00:21:05;102990.38;;;-0.32;88.57
71805;BME280;59654;52.216;5.616;2023-02-28T00:21:36;102987.69;;;-0.33;89.03
71805;BME280;59654;52.216;5.616;2023-02-28T00:22:07;102984.16;;;-0.34;88.69
71805;BME280;59654;52.216;5.616;2023-02-28T00:22:41;102995.41;;;-0.36;88.79
71805;BME280;59654;52.216;5.616;2023-02-28T00:23:13;102993.63;;;-0.37;88.33
71805;BME280;59654;52.216;5.616;2023-02-28T00:23:43;102990.19;;;-0.36;88.73
71805;BME280;59654;52.216;5.616;2023-02-28T00:24:14;102986.59;;;-0.38;88.53
71805;BME280;59654;52.216;5.616;2023-02-28T00:24:46;102994.47;;;-0.38;88.86
71805;BME280;59654;52.216;5.616;2023-02-28T00:25:20;102985.69;;;-0.39;88.98
71805;BME280;59654;52.216;5.616;2023-02-28T00:25:53;102987.41;;;-0.41;88.91
71805;BME280;59654;52.216;5.616;2023-02-28T00:26:24;102985.66;;;-0.40;89.24
71805;BME280;59654;52.216;5.616;2023-02-28T00:26:55;102989.16;;;-0.40;89.01
71805;BME280;59654;52.216;5.616;2023-02-28T00:27:26;102980.38;;;-0.42;89.39
71805;BME280;59654;52.216;5.616;2023-02-28T00:27:57;102985.53;;;-0.43;89.50
71805;BME280;59654;52.216;5.616;2023-02-28T00:28:27;102990.78;;;-0.43;89.23
71805;BME280;59654;52.216;5.616;2023-02-28T00:28:58;102985.47;;;-0.45;89.40
71805;BME280;59654;52.216;5.616;2023-02-28T00:29:29;102990.66;;;-0.46;89.47
71805;BME280;59654;52.216;5.616;2023-02-28T00:30:00;102981.81;;;-0.48;89.56
71805;BME280;59654;52.216;5.616;2023-02-28T00:30:31;102984.38;;;-0.50;90.07
71805;BME280;59654;52.216;5.616;2023-02-28T00:31:02;102990.44;;;-0.51;89.97
71805;BME280;59654;52.216;5.616;2023-02-28T00:31:33;102982.66;;;-0.49;90.15
71805;BME280;59654;52.216;5.616;2023-02-28T00:32:05;102989.75;;;-0.47;90.14
71805;BME280;59654;52.216;5.616;2023-02-28T00:32:36;102984.56;;;-0.45;90.03
71805;BME280;59654;52.216;5.616;2023-02-28T00:33:07;102977.59;;;-0.45;90.22
71805;BME280;59654;52.216;5.616;2023-02-28T00:33:38;102984.69;;;-0.42;89.97
71805;BME280;59654;52.216;5.616;2023-02-28T00:34:08;102985.59;;;-0.42;90.17
71805;BME280;59654;52.216;5.616;2023-02-28T00:34:39;102990.84;;;-0.42;90.29
71805;BME280;59654;52.216;5.616;2023-02-28T00:35:10;102976.91;;;-0.41;89.91
71805;BME280;59654;52.216;5.616;2023-02-28T00:35:42;102978.66;;;-0.40;90.29
71805;BME280;59654;52.216;5.616;2023-02-28T00:36:16;102981.34;;;-0.38;89.88
71805;BME280;59654;52.216;5.616;2023-02-28T00:36:47;102982.25;;;-0.38;90.03
71805;BME280;59654;52.216;5.616;2023-02-28T00:37:20;102979.69;;;-0.36;90.34
71805;BME280;59654;52.216;5.616;2023-02-28T00:37:51;102984.09;;;-0.35;89.95
71805;BME280;59654;52.216;5.616;2023-02-28T00:38:22;102987.69;;;-0.33;90.52
71805;BME280;59654;52.216;5.616;2023-02-28T00:38:52;102985.06;;;-0.33;90.23
71805;BME280;59654;52.216;5.616;2023-02-28T00:39:23;102986.94;;;-0.31;90.39
71805;BME280;59654;52.216;5.616;2023-02-28T00:39:54;102991.41;;;-0.28;89.93
71805;BME280;59654;52.216;5.616;2023-02-28T00:40:26;102988.00;;;-0.26;90.33
71805;BME280;59654;52.216;5.616;2023-02-28T00:40:57;102982.88;;;-0.23;90.32
71805;BME280;59654;52.216;5.616;2023-02-28T00:41:29;102989.06;;;-0.21;90.24
71805;BME280;59654;52.216;5.616;2023-02-28T00:42:00;102988.31;;;-0.18;89.72
71805;BME280;59654;52.216;5.616;2023-02-28T00:42:31;102988.38;;;-0.16;89.86
71805;BME280;59654;52.216;5.616;2023-02-28T00:43:02;102985.81;;;-0.15;90.01
71805;BME280;59654;52.216;5.616;2023-02-28T00:43:35;102994.72;;;-0.11;89.48
71805;BME280;59654;52.216;5.616;2023-02-28T00:44:08;102993.03;;;-0.09;89.26
71805;BME280;59654;52.216;5.616;2023-02-28T00:44:38;102988.72;;;-0.07;89.30
71805;BME280;59654;52.216;5.616;2023-02-28T00:45:09;102984.44;;;-0.05;89.57
71805;BME280;59654;52.216;5.616;2023-02-28T00:45:42;102986.22;;;-0.04;89.27
71805;BME280;59654;52.216;5.616;2023-02-28T00:46:13;102991.53;;;-0.03;89.05
71805;BME280;59654;52.216;5.616;2023-02-28T00:46:44;102986.34;;;-0.01;89.08
71805;BME280;59654;52.216;5.616;2023-02-28T00:47:15;102988.16;;;-0.00;89.05
71805;BME280;59654;52.216;5.616;2023-02-28T00:47:47;102987.38;;;0.02;89.31
71805;BME280;59654;52.216;5.616;2023-02-28T00:48:20;102988.28;;;0.03;89.29
71805;BME280;59654;52.216;5.616;2023-02-28T00:48:51;102992.69;;;0.04;89.27
71805;BME280;59654;52.216;5.616;2023-02-28T00:49:22;102989.22;;;0.05;89.28
71805;BME280;59654;52.216;5.616;2023-02-28T00:49:53;102990.06;;;0.04;89.03
71805;BME280;59654;52.216;5.616;2023-02-28T00:50:24;102988.34;;;0.04;89.07
71805;BME280;59654;52.216;5.616;2023-02-28T00:50:55;102984.00;;;0.05;88.93
71805;BME280;59654;52.216;5.616;2023-02-28T00:51:26;102990.97;;;0.04;88.95
71805;BME280;59654;52.216;5.616;2023-02-28T00:51:57;102989.31;;;0.06;88.99
71805;BME280;59654;52.216;5.616;2023-02-28T00:52:30;102987.56;;;0.07;89.33
71805;BME280;59654;52.216;5.616;2023-02-28T00:53:01;102986.56;;;0.03;89.09
71805;BME280;59654;52.216;5.616;2023-02-28T00:53:32;102988.34;;;0.04;89.13
71805;BME280;59654;52.216;5.616;2023-02-28T00:54:03;102987.44;;;0.04;89.38
71805;BME280;59654;52.216;5.616;2023-02-28T00:54:34;102984.88;;;0.05;88.87
71805;BME280;59654;52.216;5.616;2023-02-28T00:55:04;102981.38;;;0.05;88.96
71805;BME280;59654;52.216;5.616;2023-02-28T00:55:37;102990.19;;;0.07;89.34
71805;BME280;59654;52.216;5.616;2023-02-28T00:56:08;102984.94;;;0.07;89.03
71805;BME280;59654;52.216;5.616;2023-02-28T00:56:39;102987.63;;;0.08;88.66
71805;BME280;59654;52.216;5.616;2023-02-28T00:57:10;102983.25;;;0.09;89.18
71805;BME280;59654;52.216;5.616;2023-02-28T00:57:40;102993.81;;;0.10;89.37
71805;BME280;59654;52.216;5.616;2023-02-28T00:58:11;102981.59;;;0.11;88.99
71805;BME280;59654;52.216;5.616;2023-02-28T00:58:42;102986.84;;;0.11;88.85
71805;BME280;59654;52.216;5.616;2023-02-28T00:59:14;102985.88;;;0.09;89.37
71805;BME280;59654;52.216;5.616;2023-02-28T00:59:46;102994.69;;;0.11;89.03
71805;BME280;59654;52.216;5.616;2023-02-28T01:00:17;102987.72;;;0.11;89.69
71805;BME280;59654;52.216;5.616;2023-02-28T01:00:48;102987.84;;;0.14;89.86
71805;BME280;59654;52.216;5.616;2023-02-28T01:01:19;102993.16;;;0.16;89.17
71805;BME280;59654;52.216;5.616;2023-02-28T01:01:50;102984.47;;;0.17;89.66
71805;BME280;59654;52.216;5.616;2023-02-28T01:02:22;102988.88;;;0.18;89.70
71805;BME280;59654;52.216;5.616;2023-02-28T01:02:53;102989.72;;;0.17;89.67
71805;BME280;59654;52.216;5.616;2023-02-28T01:03:24;102987.16;;;0.19;89.53
71805;BME280;59654;52.216;5.616;2023-02-28T01:03:55;102984.59;;;0.20;89.85
71805;BME280;59654;52.216;5.616;2023-02-28T01:04:26;102984.78;;;0.25;89.45
71805;BME280;59654;52.216;5.616;2023-02-28T01:04:56;102984.91;;;0.29;89.38
71805;BME280;59654;52.216;5.616;2023-02-28T01:05:27;102982.47;;;0.34;89.18
71805;BME280;59654;52.216;5.616;2023-02-28T01:05:58;102988.75;;;0.37;89.19
71805;BME280;59654;52.216;5.616;2023-02-28T01:06:29;102982.66;;;0.38;88.96
71805;BME280;59654;52.216;5.616;2023-02-28T01:07:00;102988.75;;;0.37;88.78
71805;BME280;59654;52.216;5.616;2023-02-28T01:07:33;102985.28;;;0.38;88.79
71805;BME280;59654;52.216;5.616;2023-02-28T01:08:04;102985.09;;;0.34;89.80
71805;BME280;59654;52.216;5.616;2023-02-28T01:08:35;102979.91;;;0.35;89.83
71805;BME280;59654;52.216;5.616;2023-02-28T01:09:07;102981.84;;;0.39;89.77
71805;BME280;59654;52.216;5.616;2023-02-28T01:09:38;102989.78;;;0.42;89.23
71805;BME280;59654;52.216;5.616;2023-02-28T01:10:09;102983.78;;;0.45;88.65
71805;BME280;59654;52.216;5.616;2023-02-28T01:10:41;102983.84;;;0.46;88.87
71805;BME280;59654;52.216;5.616;2023-02-28T01:11:15;102984.91;;;0.51;89.19
71805;BME280;59654;52.216;5.616;2023-02-28T01:11:47;102986.69;;;0.53;88.39
71805;BME280;59654;52.216;5.616;2023-02-28T01:12:18;102985.03;;;0.55;88.85
71805;BME280;59654;52.216;5.616;2023-02-28T01:12:51;102987.72;;;0.56;88.41
71805;BME280;59654;52.216;5.616;2023-02-28T01:13:22;102981.78;;;0.62;88.45
71805;BME280;59654;52.216;5.616;2023-02-28T01:13:53;102985.41;;;0.65;87.57
71805;BME280;59654;52.216;5.616;2023-02-28T01:14:24;102982.84;;;0.67;87.61
71805;BME280;59654;52.216;5.616;2023-02-28T01:14:55;102984.66;;;0.68;87.56
71805;BME280;59654;52.216;5.616;2023-02-28T01:15:26;102982.91;;;0.68;87.68
71805;BME280;59654;52.216;5.616;2023-02-28T01:15:56;102982.13;;;0.71;87.88
71805;BME280;59654;52.216;5.616;2023-02-28T01:16:28;102979.59;;;0.74;87.74
71805;BME280;59654;52.216;5.616;2023-02-28T01:16:59;102977.84;;;0.73;86.91
71805;BME280;59654;52.216;5.616;2023-02-28T01:17:30;102979.56;;;0.72;87.81
71805;BME280;59654;52.216;5.616;2023-02-28T01:18:04;102982.19;;;0.72;87.47
71805;BME280;59654;52.216;5.616;2023-02-28T01:18:36;102978.66;;;0.72;87.75
71805;BME280;59654;52.216;5.616;2023-02-28T01:19:08;102979.56;;;0.72;87.54
71805;BME280;59654;52.216;5.616;2023-02-28T01:19:39;102973.47;;;0.73;87.47
71805;BME280;59654;52.216;5.616;2023-02-28T01:20:10;102978.75;;;0.75;87.56
71805;BME280;59654;52.216;5.616;2023-02-28T01:20:41;102973.63;;;0.78;87.98
71805;BME280;59654;52.216;5.616;2023-02-28T01:21:16;102983.28;;;0.79;87.86
71805;BME280;59654;52.216;5.616;2023-02-28T01:21:48;102973.69;;;0.79;87.43
71805;BME280;59654;52.216;5.616;2023-02-28T01:22:19;102979.00;;;0.81;87.66
71805;BME280;59654;52.216;5.616;2023-02-28T01:22:50;102975.53;;;0.82;86.97
71805;BME280;59654;52.216;5.616;2023-02-28T01:23:23;102973.03;;;0.85;87.92
71805;BME280;59654;52.216;5.616;2023-02-28T01:23:56;102968.78;;;0.89;86.88
71805;BME280;59654;52.216;5.616;2023-02-28T01:24:28;102976.69;;;0.90;87.03
71805;BME280;59654;52.216;5.616;2023-02-28T01:24:59;102968.84;;;0.92;87.37
71805;BME280;59654;52.216;5.616;2023-02-28T01:25:30;102982.88;;;0.92;87.17
71805;BME280;59654;52.216;5.616;2023-02-28T01:26:09;102973.38;;;0.96;86.74
71805;BME280;59654;52.216;5.616;2023-02-28T01:26:43;102967.13;;;0.92;86.74
71805;BME280;59654;52.216;5.616;2023-02-28T01:27:14;102968.97;;;0.95;86.41
71805;BME280;59654;52.216;5.616;2023-02-28T01:27:45;102968.19;;;0.97;86.92
71805;BME280;59654;52.216;5.616;2023-02-28T01:28:16;102966.53;;;0.99;86.64
71805;BME280;59654;52.216;5.616;2023-02-28T01:28:48;102967.41;;;1.00;86.35
71805;BME280;59654;52.216;5.616;2023-02-28T01:29:20;102969.22;;;1.01;86.40
71805;BME280;59654;52.216;5.616;2023-02-28T01:29:51;102970.16;;;1.03;86.55
71805;BME280;59654;52.216;5.616;2023-02-28T01:30:21;102969.31;;;1.04;86.90
71805;BME280;59654;52.216;5.616;2023-02-28T01:30:52;102974.56;;;1.04;86.29
71805;BME280;59654;52.216;5.616;2023-02-28T01:31:23;102974.63;;;1.05;86.91
71805;BME280;59654;52.216;5.616;2023-02-28T01:31:54;102967.66;;;1.06;86.08
71805;BME280;59654;52.216;5.616;2023-02-28T01:32:25;102979.00;;;1.06;86.15
71805;BME280;59654;52.216;5.616;2023-02-28T01:32:56;102970.22;;;1.04;86.20
71805;BME280;59654;52.216;5.616;2023-02-28T01:33:27;102973.75;;;1.06;86.72
71805;BME280;59654;52.216;5.616;2023-02-28T01:33:59;102974.72;;;1.08;86.46
71805;BME280;59654;52.216;5.616;2023-02-28T01:34:32;102973.81;;;1.08;86.40
71805;BME280;59654;52.216;5.616;2023-02-28T01:35:03;102972.91;;;1.07;86.25
71805;BME280;59654;52.216;5.616;2023-02-28T01:35:35;102972.97;;;1.09;85.94
71805;BME280;59654;52.216;5.616;2023-02-28T01:36:18;102973.88;;;1.09;85.83
71805;BME280;59654;52.216;5.616;2023-02-28T01:36:53;102974.75;;;1.10;86.00
71805;BME280;59654;52.216;5.616;2023-02-28T01:37:24;102976.56;;;1.11;85.98
71805;BME280;59654;52.216;5.616;2023-02-28T01:37:54;102973.94;;;1.11;86.10
71805;BME280;59654;52.216;5.616;2023-02-28T01:38:26;102978.34;;;1.12;86.42
71805;BME280;59654;52.216;5.616;2023-02-28T01:38:58;102980.06;;;1.11;86.54
71805;BME280;59654;52.216;5.616;2023-02-28T01:39:30;102976.63;;;1.12;86.60
71805;BME280;59654;52.216;5.616;2023-02-28T01:40:01;102971.34;;;1.12;86.39
71805;BME280;59654;52.216;5.616;2023-02-28T01:40:33;102982.69;;;1.11;85.65
71805;BME280;59654;52.216;5.616;2023-02-28T01:41:04;102984.50;;;1.12;85.94
71805;BME280;59654;52.216;5.616;2023-02-28T01:41:37;102977.50;;;1.13;86.17
71805;BME280;59654;52.216;5.616;2023-02-28T01:42:09;102982.81;;;1.14;86.06
71805;BME280;59654;52.216;5.616;2023-02-28T01:42:40;102983.72;;;1.15;86.07
71805;BME280;59654;52.216;5.616;2023-02-28T01:43:21;102979.34;;;1.15;85.36
71805;BME280;59654;52.216;5.616;2023-02-28T01:45:39;102967.22;;;1.19;85.71
71805;BME280;59654;52.216;5.616;2023-02-28T01:46:11;102968.13;;;1.19;85.77
71805;BME280;59654;52.216;5.616;2023-02-28T01:46:42;102968.94;;;1.18;85.71
71805;BME280;59654;52.216;5.616;2023-02-28T01:47:14;102969.75;;;1.16;85.22
71805;BME280;59654;52.216;5.616;2023-02-28T01:47:48;102966.09;;;1.12;85.48
71805;BME280;59654;52.216;5.616;2023-02-28T01:48:30;102964.13;;;1.05;86.57
71805;BME280;59654;52.216;5.616;2023-02-28T01:49:42;102963.72;;;0.95;86.38
71805;BME280;59654;52.216;5.616;2023-02-28T01:50:20;102964.63;;;0.95;85.93
71805;BME280;59654;52.216;5.616;2023-02-28T01:51:00;102967.13;;;0.92;86.40
71805;BME280;59654;52.216;5.616;2023-02-28T01:51:39;102964.25;;;0.84;86.12
71805;BME280;59654;52.216;5.616;2023-02-28T01:52:22;102964.72;;;0.73;86.61
71805;BME280;59654;52.216;5.616;2023-02-28T01:53:02;102965.25;;;0.64;87.43
71805;BME280;59654;52.216;5.616;2023-02-28T01:53:44;102970.44;;;0.63;87.78
71805;BME280;59654;52.216;5.616;2023-02-28T01:54:27;102962.38;;;0.57;87.98
71805;BME280;59654;52.216;5.616;2023-02-28T01:55:05;102963.13;;;0.54;88.30
71805;BME280;59654;52.216;5.616;2023-02-28T01:55:39;102965.59;;;0.49;88.42
71805;BME280;59654;52.216;5.616;2023-02-28T01:56:14;102957.53;;;0.45;89.14
71805;BME280;59654;52.216;5.616;2023-02-28T01:56:57;102965.28;;;0.42;89.03
71805;BME280;59654;52.216;5.616;2023-02-28T01:57:35;102962.56;;;0.39;89.83
71805;BME280;59654;52.216;5.616;2023-02-28T01:58:08;102960.84;;;0.39;89.56
71805;BME280;59654;52.216;5.616;2023-02-28T01:58:39;102963.53;;;0.41;89.77
71805;BME280;59654;52.216;5.616;2023-02-28T01:59:14;102952.13;;;0.40;89.63
71805;BME280;59654;52.216;5.616;2023-02-28T01:59:54;102960.94;;;0.42;89.40
71805;BME280;59654;52.216;5.616;2023-02-28T02:00:43;102959.19;;;0.43;89.82
71805;BME280;59654;52.216;5.616;2023-02-28T02:01:14;102966.25;;;0.44;89.63
71805;BME280;59654;52.216;5.616;2023-02-28T02:01:53;102960.09;;;0.43;89.73
71805;BME280;59654;52.216;5.616;2023-02-28T02:02:25;102954.91;;;0.45;89.88
71805;BME280;59654;52.216;5.616;2023-02-28T02:03:00;102961.06;;;0.45;89.79
71805;BME280;59654;52.216;5.616;2023-02-28T02:03:36;102958.50;;;0.47;89.35
71805;BME280;59654;52.216;5.616;2023-02-28T02:04:06;102956.75;;;0.47;90.08
71805;BME280;59654;52.216;5.616;2023-02-28T02:04:46;102955.88;;;0.47;89.43
71805;BME280;59654;52.216;5.616;2023-02-28T02:05:37;102957.59;;;0.46;89.94
71805;BME280;59654;52.216;5.616;2023-02-28T02:06:10;102954.91;;;0.45;89.57
71805;BME280;59654;52.216;5.616;2023-02-28T02:06:44;102956.75;;;0.47;89.67
71805;BME280;59654;52.216;5.616;2023-02-28T02:07:16;102959.38;;;0.47;89.85
71805;BME280;59654;52.216;5.616;2023-02-28T02:07:56;102961.22;;;0.50;89.20
71805;BME280;59654;52.216;5.616;2023-02-28T02:08:31;102957.84;;;0.53;89.77
71805;BME280;59654;52.216;5.616;2023-02-28T02:09:02;102962.25;;;0.54;89.53
71805;BME280;59654;52.216;5.616;2023-02-28T02:09:33;102961.50;;;0.58;88.83
71805;BME280;59654;52.216;5.616;2023-02-28T02:10:16;102959.81;;;0.60;88.67
71805;BME280;59654;52.216;5.616;2023-02-28T02:10:56;102958.16;;;0.62;88.33
71805;BME280;59654;52.216;5.616;2023-02-28T02:11:30;102956.53;;;0.65;88.79
71805;BME280;59654;52.216;5.616;2023-02-28T02:12:24;102962.63;;;0.64;88.47
71805;BME280;59654;52.216;5.616;2023-02-28T02:13:58;102955.28;;;0.54;88.44
71805;BME280;59654;52.216;5.616;2023-02-28T02:15:26;102959.63;;;0.54;88.48
71805;BME280;59654;52.216;5.616;2023-02-28T02:17:08;102950.56;;;0.45;89.11
71805;BME280;59654;52.216;5.616;2023-02-28T02:17:50;102951.44;;;0.46;89.76
71805;BME280;59654;52.216;5.616;2023-02-28T02:25:49;102950.34;;;0.39;89.92
71805;BME280;59654;52.216;5.616;2023-02-28T02:33:47;102953.97;;;0.67;89.78
71805;BME280;59654;52.216;5.616;2023-02-28T02:35:06;102951.59;;;0.74;89.24
71805;BME280;59654;52.216;5.616;2023-02-28T02:36:19;102954.41;;;0.79;89.63
71805;BME280;59654;52.216;5.616;2023-02-28T02:37:17;102945.75;;;0.81;89.13
71805;BME280;59654;52.216;5.616;2023-02-28T02:41:38;102954.22;;;0.98;87.78
71805;BME280;59654;52.216;5.616;2023-02-28T02:42:39;102953.28;;;0.96;88.04
71805;BME280;59654;52.216;5.616;2023-02-28T02:43:53;102952.50;;;0.99;88.52
71805;BME280;59654;52.216;5.616;2023-02-28T02:44:53;102953.38;;;0.99;87.88
71805;BME280;59654;52.216;5.616;2023-02-28T02:45:37;102948.25;;;1.02;87.41
71805;BME280;59654;52.216;5.616;2023-02-28T02:46:25;102957.88;;;1.02;88.23
71805;BME280;59654;52.216;5.616;2023-02-28T02:47:16;102953.38;;;0.99;87.74
71805;BME280;59654;52.216;5.616;2023-02-28T02:47:51;102958.59;;;0.98;88.29
71805;BME280;59654;52.216;5.616;2023-02-28T02:48:26;102960.44;;;1.00;88.35
71805;BME280;59654;52.216;5.616;2023-02-28T02:49:06;102957.91;;;1.03;88.69
71805;BME280;59654;52.216;5.616;2023-02-28T02:49:45;102952.59;;;1.02;88.21
71805;BME280;59654;52.216;5.616;2023-02-28T02:50:26;102951.88;;;1.06;88.23
71805;BME280;59654;52.216;5.616;2023-02-28T02:51:09;102952.97;;;1.12;87.79
71805;BME280;59654;52.216;5.616;2023-02-28T02:51:48;102948.66;;;1.14;88.06
71805;BME280;59654;52.216;5.616;2023-02-28T02:52:27;102948.72;;;1.16;87.39
71805;BME280;59654;52.216;5.616;2023-02-28T02:53:05;102947.03;;;1.18;87.58
71805;BME280;59654;52.216;5.616;2023-02-28T02:53:50;102953.19;;;1.18;87.97
71805;BME280;59654;52.216;5.616;2023-02-28T02:54:29;102947.03;;;1.18;87.79
71805;BME280;59654;52.216;5.616;2023-02-28T02:55:04;102945.38;;;1.20;87.74
71805;BME280;59654;52.216;5.616;2023-02-28T02:55:41;102948.06;;;1.23;87.37
71805;BME280;59654;52.216;5.616;2023-02-28T02:56:23;102946.38;;;1.25;87.92
71805;BME280;59654;52.216;5.616;2023-02-28T02:57:06;102946.34;;;1.23;87.98
71805;BME280;59654;52.216;5.616;2023-02-28T02:57:58;102956.06;;;1.26;87.41
71805;BME280;59654;52.216;5.616;2023-02-28T02:58:37;102956.00;;;1.25;87.47
71805;BME280;59654;52.216;5.616;2023-02-28T02:59:18;102952.47;;;1.24;87.92
71805;BME280;59654;52.216;5.616;2023-02-28T02:59:55;102950.84;;;1.28;87.30
71805;BME280;59654;52.216;5.616;2023-02-28T03:00:39;102953.50;;;1.28;87.08
71805;BME280;59654;52.216;5.616;2023-02-28T03:01:22;102952.66;;;1.29;87.25
71805;BME280;59654;52.216;5.616;2023-02-28T03:02:06;102947.56;;;1.33;87.38
71805;BME280;59654;52.216;5.616;2023-02-28T03:02:41;102953.72;;;1.34;87.27
71805;BME280;59654;52.216;5.616;2023-02-28T03:03:14;102949.28;;;1.33;86.93
71805;BME280;59654;52.216;5.616;2023-02-28T03:03:48;102951.03;;;1.32;87.26
71805;BME280;59654;52.216;5.616;2023-02-28T03:04:22;102952.75;;;1.32;86.54
71805;BME280;59654;52.216;5.616;2023-02-28T03:05:01;102953.59;;;1.31;87.20
71805;BME280;59654;52.216;5.616;2023-02-28T03:05:56;102952.75;;;1.32;87.23
71805;BME280;59654;52.216;5.616;2023-02-28T03:06:28;102954.56;;;1.33;87.64
71805;BME280;59654;52.216;5.616;2023-02-28T03:06:59;102950.25;;;1.35;87.56
71805;BME280;59654;52.216;5.616;2023-02-28T03:07:30;102946.72;;;1.34;87.18
71805;BME280;59654;52.216;5.616;2023-02-28T03:08:04;102959.81;;;1.33;86.78
71805;BME280;59654;52.216;5.616;2023-02-28T03:08:37;102957.13;;;1.31;87.64
71805;BME280;59654;52.216;5.616;2023-02-28T03:09:08;102951.88;;;1.31;87.73
71805;BME280;59654;52.216;5.616;2023-02-28T03:09:39;102959.81;;;1.33;87.85
71805;BME280;59654;52.216;5.616;2023-02-28T03:10:41;102959.91;;;1.36;87.10
71805;BME280;59654;52.216;5.616;2023-02-28T03:11:14;102956.50;;;1.38;87.22
71805;BME280;59654;52.216;5.616;2023-02-28T03:11:49;102952.09;;;1.39;87.25
71805;BME280;59654;52.216;5.616;2023-02-28T03:12:40;102954.72;;;1.37;86.64
71805;BME280;59654;52.216;5.616;2023-02-28T03:15:24;102953.16;;;1.44;86.64
71805;BME280;59654;52.216;5.616;2023-02-28T03:18:49;102961.88;;;1.43;87.32
71805;BME280;59654;52.216;5.616;2023-02-28T03:20:32;102958.47;;;1.45;86.71
71805;BME280;59654;52.216;5.616;2023-02-28T03:23:45;102947.13;;;1.46;86.72
71805;BME280;59654;52.216;5.616;2023-02-28T03:25:46;102954.94;;;1.45;87.15
71805;BME280;59654;52.216;5.616;2023-02-28T03:26:26;102958.56;;;1.48;87.09
71805;BME280;59654;52.216;5.616;2023-02-28T03:27:06;102954.22;;;1.49;86.61
71805;BME280;59654;52.216;5.616;2023-02-28T03:29:37;102950.69;;;1.48;87.08
71805;BME280;59654;52.216;5.616;2023-02-28T03:30:27;102948.06;;;1.48;86.72
71805;BME280;59654;52.216;5.616;2023-02-28T03:31:23;102954.22;;;1.49;87.32
71805;BME280;59654;52.216;5.616;2023-02-28T03:32:13;102955.94;;;1.48;87.23
71805;BME280;59654;52.216;5.616;2023-02-28T03:32:57;102961.22;;;1.48;86.53
71805;BME280;59654;52.216;5.616;2023-02-28T03:33:39;102957.69;;;1.48;86.77
71805;BME280;59654;52.216;5.616;2023-02-28T03:34:30;102955.91;;;1.47;86.34
71805;BME280;59654;52.216;5.616;2023-02-28T03:35:16;102958.53;;;1.47;86.34
71805;BME280;59654;52.216;5.616;2023-02-28T03:36:13;102958.53;;;1.47;86.72
71805;BME280;59654;52.216;5.616;2023-02-28T03:36:53;102963.66;;;1.44;86.30
71805;BME280;59654;52.216;5.616;2023-02-28T03:37:32;102973.34;;;1.45;86.76
71805;BME280;59654;52.216;5.616;2023-02-28T03:38:17;102971.63;;;1.45;87.18
71805;BME280;59654;52.216;5.616;2023-02-28T03:39:02;102966.19;;;1.41;87.07
71805;BME280;59654;52.216;5.616;2023-02-28T03:39:47;102968.03;;;1.43;87.64
71805;BME280;59654;52.216;5.616;2023-02-28T03:40:24;102973.19;;;1.40;87.86
71805;BME280;59654;52.216;5.616;2023-02-28T03:41:12;102980.94;;;1.36;87.93